Time;durP1;ratioP1;P1;durP2;ratioP2;P2;SDS_P1;SDS_P2;PMS_P1;PMS_P2;Temp;Humidity;BMP_temperature;BMP_pressure;BME280_temperature;BME280_humidity;BME280_pressure;Samples;Min_cycle;Max_cycle;Signal;HPM_P1;HPM_P2
2021/10/10 00:00:24;;;;;;;;;;;;;;;19.12;60.21;100360.25;2084579;28;19916;-67
2021/10/10 00:01:24;;;;;;;;;;;;;;;19.11;60.23;100363.97;2084535;28;19959;-67
2021/10/10 00:02:25;;;;;;;;;;;;;;;19.11;60.30;100364.84;2083052;28;19905;-67
2021/10/10 00:03:25;;;;;;;;;;;;;;;19.11;60.23;100361.22;2083933;28;19920;-67
2021/10/10 00:04:25;;;;;;;;;;;;;;;19.11;60.21;100362.13;2079562;28;19920;-67
2021/10/10 00:05:26;;;;;;;;;;;;;;;19.11;60.17;100361.22;2080301;28;19923;-67
2021/10/10 00:06:26;;;;;;;;;;;;;;;19.10;60.17;100360.38;2084116;28;19915;-67
2021/10/10 00:07:26;;;;;;;;;;;;;;;19.11;60.25;100361.22;2084219;28;19913;-67
2021/10/10 00:08:27;;;;;;;;;;;;;;;19.11;60.19;100362.13;2077817;28;19917;-67
2021/10/10 00:09:27;;;;;;;;;;;;;;;19.10;60.21;100360.38;2084440;28;19939;-67
2021/10/10 00:10:27;;;;;;;;;;;;;;;19.10;60.25;100359.53;2080642;28;20002;-67
2021/10/10 00:11:28;;;;;;;;;;;;;;;19.10;60.23;100351.31;2085423;28;20310;-67
2021/10/10 00:12:28;;;;;;;;;;;;;;;19.10;60.25;100360.38;2081149;28;20681;-67
2021/10/10 00:13:28;;;;;;;;;;;;;;;19.10;60.21;100365.84;2086223;28;19978;-67
2021/10/10 00:14:38;;;;;;;;;;;;;;;19.10;60.21;100363.09;2083804;28;19947;-66
2021/10/10 00:15:38;;;;;;;;;;;;;;;19.09;60.14;100358.66;2083693;28;19908;-66
2021/10/10 00:16:38;;;;;;;;;;;;;;;19.11;59.99;100366.69;2084874;28;19920;-67
2021/10/10 00:17:39;;;;;;;;;;;;;;;19.09;60.17;100355.94;2079876;28;19921;-67
2021/10/10 00:18:40;;;;;;;;;;;;;;;19.09;60.26;100361.41;2082896;28;19932;-67
2021/10/10 00:19:40;;;;;;;;;;;;;;;19.10;60.16;100360.38;2082191;28;19909;-66
2021/10/10 00:20:40;;;;;;;;;;;;;;;19.10;60.23;100363.09;2080884;28;19916;-67
2021/10/10 00:21:41;;;;;;;;;;;;;;;19.10;60.20;100360.38;2082790;28;19916;-67
2021/10/10 00:22:41;;;;;;;;;;;;;;;19.09;60.24;100358.66;2080958;28;20023;-67
2021/10/10 00:23:41;;;;;;;;;;;;;;;19.10;60.15;100363.09;2084297;28;19920;-67
2021/10/10 00:24:42;;;;;;;;;;;;;;;19.09;60.23;100361.41;2084321;28;19916;-67
2021/10/10 00:25:42;;;;;;;;;;;;;;;19.10;60.28;100363.09;2083802;28;19928;-67
2021/10/10 00:26:43;;;;;;;;;;;;;;;19.09;60.25;100355.94;2080946;28;19909;-67
2021/10/10 00:27:43;;;;;;;;;;;;;;;19.09;60.25;100364.13;2077908;28;19913;-67
2021/10/10 00:28:43;;;;;;;;;;;;;;;19.10;60.20;100371.31;2083643;28;19916;-67
2021/10/10 00:29:43;;;;;;;;;;;;;;;19.09;60.22;100353.19;2084953;28;19916;-67
2021/10/10 00:30:44;;;;;;;;;;;;;;;19.10;60.23;100359.53;2072580;28;19920;-67
2021/10/10 00:31:44;;;;;;;;;;;;;;;19.10;60.17;100364.97;2073672;28;20042;-67
2021/10/10 00:32:45;;;;;;;;;;;;;;;19.10;60.11;100363.09;2081851;28;19958;-67
2021/10/10 00:33:45;;;;;;;;;;;;;;;19.10;60.24;100365.84;2081928;28;19920;-67
2021/10/10 00:34:45;;;;;;;;;;;;;;;19.09;60.36;100364.13;2079276;28;19944;-67
2021/10/10 00:35:46;;;;;;;;;;;;;;;19.09;60.22;100372.31;2081474;28;19917;-68
2021/10/10 00:36:46;;;;;;;;;;;;;;;19.09;60.26;100364.13;2076633;28;19925;-67
2021/10/10 00:37:47;;;;;;;;;;;;;;;19.09;60.22;100366.88;2081294;28;19908;-68
2021/10/10 00:38:47;;;;;;;;;;;;;;;19.09;60.18;100366.00;2081284;28;19917;-67
2021/10/10 00:39:47;;;;;;;;;;;;;;;19.09;60.23;100364.13;2077410;28;20448;-67
2021/10/10 00:40:48;;;;;;;;;;;;;;;19.09;60.25;100358.66;2079309;28;19958;-67
2021/10/10 00:41:48;;;;;;;;;;;;;;;19.08;60.10;100365.13;2077858;28;20008;-67
2021/10/10 00:42:48;;;;;;;;;;;;;;;19.10;60.29;100364.97;2081566;28;20006;-67
2021/10/10 00:43:48;;;;;;;;;;;;;;;19.08;60.23;100359.66;2081052;28;19962;-67
2021/10/10 00:44:49;;;;;;;;;;;;;;;19.09;60.21;100357.81;2082933;28;19920;-67
2021/10/10 00:45:50;;;;;;;;;;;;;;;19.08;60.23;100359.66;2083557;28;19912;-67
2021/10/10 00:46:50;;;;;;;;;;;;;;;19.09;60.21;100360.53;2082037;28;19999;-67
2021/10/10 00:47:51;;;;;;;;;;;;;;;19.08;60.22;100367.84;2082944;28;20461;-67
2021/10/10 00:48:51;;;;;;;;;;;;;;;19.09;60.29;100360.53;2082782;28;19986;-67
2021/10/10 00:49:51;;;;;;;;;;;;;;;19.09;60.23;100361.41;2083512;28;20387;-67
2021/10/10 00:50:52;;;;;;;;;;;;;;;19.09;60.26;100369.59;2083739;28;19954;-67
2021/10/10 00:51:53;;;;;;;;;;;;;;;19.09;60.25;100366.88;2084431;28;19924;-67
2021/10/10 00:52:53;;;;;;;;;;;;;;;19.09;60.18;100364.13;2081100;28;19931;-67
2021/10/10 00:53:54;;;;;;;;;;;;;;;19.09;60.29;100368.75;2084473;28;20009;-67
2021/10/10 00:54:55;;;;;;;;;;;;;;;19.09;60.22;100369.59;2080347;28;19925;-68
2021/10/10 00:55:56;;;;;;;;;;;;;;;19.09;60.17;100369.59;2083763;28;19962;-67
2021/10/10 00:56:57;;;;;;;;;;;;;;;19.09;60.23;100369.59;2083646;28;19925;-67
2021/10/10 00:57:58;;;;;;;;;;;;;;;19.09;60.21;100369.59;2082689;28;19959;-67
2021/10/10 00:59:00;;;;;;;;;;;;;;;19.08;60.21;100367.84;2077246;28;19920;-67
2021/10/10 01:00:02;;;;;;;;;;;;;;;19.08;60.20;100356.91;2079738;28;19917;-68
2021/10/10 01:01:02;;;;;;;;;;;;;;;19.08;60.25;100365.13;2080619;28;20376;-67
2021/10/10 01:02:03;;;;;;;;;;;;;;;19.08;60.26;100362.38;2087691;28;20256;-68
2021/10/10 01:03:05;;;;;;;;;;;;;;;19.09;60.16;100368.75;2083343;28;20327;-67
2021/10/10 01:04:05;;;;;;;;;;;;;;;19.09;60.34;100360.53;2083654;28;20003;-67
2021/10/10 01:05:06;;;;;;;;;;;;;;;19.08;60.31;100364.25;2079886;28;19912;-67
2021/10/10 01:06:06;;;;;;;;;;;;;;;19.09;60.18;100364.13;2084917;28;19909;-67
2021/10/10 01:07:07;;;;;;;;;;;;;;;19.09;60.21;100358.66;2079631;28;19921;-67
2021/10/10 01:08:07;;;;;;;;;;;;;;;19.08;60.30;100362.38;2081936;28;19909;-67
2021/10/10 01:09:07;;;;;;;;;;;;;;;19.08;60.27;100367.00;2085260;28;20413;-68
2021/10/10 01:10:08;;;;;;;;;;;;;;;19.08;60.23;100361.53;2085190;28;19920;-67
2021/10/10 01:11:10;;;;;;;;;;;;;;;19.09;60.27;100360.53;2083977;28;19978;-67
2021/10/10 01:12:10;;;;;;;;;;;;;;;19.07;60.30;100366.13;2086411;28;19966;-67
2021/10/10 01:13:12;;;;;;;;;;;;;;;19.08;60.23;100356.91;2084790;28;20151;-67
2021/10/10 01:14:13;;;;;;;;;;;;;;;19.08;60.24;100367.84;2084488;28;20011;-67
2021/10/10 01:15:14;;;;;;;;;;;;;;;19.08;60.30;100367.84;2085126;28;20668;-67
2021/10/10 01:16:14;;;;;;;;;;;;;;;19.07;60.27;100366.13;2084988;28;19923;-67
2021/10/10 01:17:15;;;;;;;;;;;;;;;19.06;60.24;100370.75;2084302;28;20130;-67
2021/10/10 01:18:20;;;;;;;;;;;;;;;19.07;60.21;100366.13;2080912;28;19939;-67
2021/10/10 01:19:20;;;;;;;;;;;;;;;19.07;60.35;100363.41;2080083;28;19920;-67
2021/10/10 01:20:21;;;;;;;;;;;;;;;19.08;60.34;100361.53;2081097;28;20288;-67
2021/10/10 01:21:21;;;;;;;;;;;;;;;19.08;60.26;100362.38;2081216;28;20363;-67
2021/10/10 01:22:21;;;;;;;;;;;;;;;19.08;60.25;100367.00;2080695;28;20372;-67
2021/10/10 01:23:22;;;;;;;;;;;;;;;19.08;60.21;100367.00;2082132;28;19959;-67
2021/10/10 01:24:22;;;;;;;;;;;;;;;19.08;60.25;100373.31;2082597;28;19909;-66
2021/10/10 01:25:22;;;;;;;;;;;;;;;19.07;60.25;100360.66;2084015;28;19970;-66
2021/10/10 01:26:23;;;;;;;;;;;;;;;19.07;60.33;100366.13;2086302;28;20318;-67
2021/10/10 01:27:23;;;;;;;;;;;;;;;19.07;60.39;100366.13;2082489;28;19957;-67
2021/10/10 01:28:24;;;;;;;;;;;;;;;19.06;60.34;100361.69;2081708;28;19928;-67
2021/10/10 01:29:24;;;;;;;;;;;;;;;19.06;60.37;100358.97;2081337;28;20300;-67
2021/10/10 01:30:24;;;;;;;;;;;;;;;19.06;60.32;100358.97;2084448;28;20034;-67
2021/10/10 01:31:24;;;;;;;;;;;;;;;19.07;60.35;100366.13;2086680;28;19908;-67
2021/10/10 01:32:25;;;;;;;;;;;;;;;19.06;60.37;100357.09;2083276;28;20008;-67
2021/10/10 01:33:25;;;;;;;;;;;;;;;19.08;60.29;100356.06;2083164;28;20383;-67
2021/10/10 01:34:26;;;;;;;;;;;;;;;19.07;60.34;100360.66;2085208;28;19920;-67
2021/10/10 01:35:26;;;;;;;;;;;;;;;19.07;60.39;100360.66;2082068;28;20384;-67
2021/10/10 01:36:35;;;;;;;;;;;;;;;19.06;60.40;100353.50;2082556;28;19909;-67
2021/10/10 01:37:45;;;;;;;;;;;;;;;19.07;60.48;100360.66;2082254;28;19939;-67
2021/10/10 01:38:45;;;;;;;;;;;;;;;19.07;60.32;100357.94;2088408;28;20224;-66
2021/10/10 01:39:45;;;;;;;;;;;;;;;19.06;60.32;100353.50;2085656;28;19932;-67
2021/10/10 01:40:46;;;;;;;;;;;;;;;19.07;60.32;100352.47;2090009;28;19995;-67
2021/10/10 01:41:46;;;;;;;;;;;;;;;19.06;60.34;100353.50;2084751;28;20350;-67
2021/10/10 01:42:47;;;;;;;;;;;;;;;19.07;60.30;100355.22;2085153;28;20296;-67
2021/10/10 01:43:47;;;;;;;;;;;;;;;19.06;60.30;100345.28;2085084;28;19942;-67
2021/10/10 01:44:47;;;;;;;;;;;;;;;19.06;60.36;100353.50;2085772;28;20397;-67
2021/10/10 01:45:48;;;;;;;;;;;;;;;19.05;60.46;100351.75;2083347;28;19920;-68
2021/10/10 01:46:48;;;;;;;;;;;;;;;19.05;60.36;100346.28;2081402;28;20395;-67
2021/10/10 01:47:49;;;;;;;;;;;;;;;19.05;60.37;100347.13;2081988;28;19919;-67
2021/10/10 01:48:49;;;;;;;;;;;;;;;19.05;60.36;100343.56;2079104;28;19925;-66
2021/10/10 01:49:49;;;;;;;;;;;;;;;19.05;60.40;100352.59;2082117;28;19916;-67
2021/10/10 01:50:50;;;;;;;;;;;;;;;19.06;60.31;100346.16;2088275;28;19962;-67
2021/10/10 01:51:51;;;;;;;;;;;;;;;19.05;60.37;100346.28;2086036;28;20017;-66
2021/10/10 01:52:51;;;;;;;;;;;;;;;19.06;60.42;100345.28;2083099;28;19921;-67
2021/10/10 01:53:51;;;;;;;;;;;;;;;19.05;60.44;100340.81;2083993;28;20177;-66
2021/10/10 01:54:51;;;;;;;;;;;;;;;19.05;60.54;100340.81;2084229;28;20913;-67
2021/10/10 01:55:52;;;;;;;;;;;;;;;19.05;60.36;100340.81;2083209;28;20835;-67
2021/10/10 01:56:52;;;;;;;;;;;;;;;19.05;60.37;100340.81;2081681;28;20407;-67
2021/10/10 01:57:52;;;;;;;;;;;;;;;19.05;60.37;100349.03;2080097;28;20004;-67
2021/10/10 01:58:53;;;;;;;;;;;;;;;19.04;60.30;100336.38;2084876;28;20001;-66
2021/10/10 01:59:53;;;;;;;;;;;;;;;19.05;60.42;100340.81;2083672;28;19931;-66
2021/10/10 02:00:53;;;;;;;;;;;;;;;19.04;60.37;100345.44;2082930;28;19955;-67
2021/10/10 02:01:54;;;;;;;;;;;;;;;19.05;60.53;100336.22;2079557;28;19917;-67
2021/10/10 02:02:54;;;;;;;;;;;;;;;19.05;60.44;100335.34;2084806;28;19912;-67
2021/10/10 02:03:54;;;;;;;;;;;;;;;19.05;60.58;100336.22;2084914;28;19952;-67
2021/10/10 02:04:55;;;;;;;;;;;;;;;19.04;60.44;100339.97;2081853;28;19912;-67
2021/10/10 02:05:55;;;;;;;;;;;;;;;19.05;60.43;100335.34;2082049;28;19917;-66
2021/10/10 02:06:55;;;;;;;;;;;;;;;19.06;60.37;100334.38;2080412;28;19956;-66
2021/10/10 02:07:56;;;;;;;;;;;;;;;19.04;60.43;100333.66;2081124;28;19909;-67
2021/10/10 02:08:57;;;;;;;;;;;;;;;19.05;60.52;100335.34;2080871;28;19909;-67
2021/10/10 02:09:57;;;;;;;;;;;;;;;19.04;60.54;100337.22;2080089;28;20004;-67
2021/10/10 02:10:57;;;;;;;;;;;;;;;19.04;60.54;100341.84;2082268;28;20617;-68
2021/10/10 02:11:58;;;;;;;;;;;;;;;19.03;60.39;100330.06;2082975;28;20264;-68
2021/10/10 02:12:58;;;;;;;;;;;;;;;19.05;60.42;100338.09;2086338;28;19947;-68
2021/10/10 02:13:59;;;;;;;;;;;;;;;19.04;60.47;100325.44;2081805;28;20388;-70
2021/10/10 02:14:59;;;;;;;;;;;;;;;19.05;60.24;100329.91;2075906;28;19925;-68
2021/10/10 02:15:59;;;;;;;;;;;;;;;19.05;60.41;100329.91;2070830;28;19996;-68
2021/10/10 02:17:00;;;;;;;;;;;;;;;19.03;60.47;100327.31;2077714;28;19962;-68
2021/10/10 02:18:00;;;;;;;;;;;;;;;19.04;60.46;100331.78;2082351;28;19922;-68
2021/10/10 02:19:01;;;;;;;;;;;;;;;19.04;60.49;100329.03;2085861;28;19920;-68
2021/10/10 02:20:01;;;;;;;;;;;;;;;19.05;60.50;100325.28;2080252;28;20608;-68
2021/10/10 02:21:01;;;;;;;;;;;;;;;19.04;60.47;100323.56;2084952;28;19913;-68
2021/10/10 02:22:02;;;;;;;;;;;;;;;19.03;60.48;100327.31;2082595;28;20725;-67
2021/10/10 02:23:02;;;;;;;;;;;;;;;19.04;60.51;100325.44;2083698;28;19966;-67
2021/10/10 02:24:03;;;;;;;;;;;;;;;19.03;60.47;100327.31;2083852;28;19927;-67
2021/10/10 02:25:04;;;;;;;;;;;;;;;19.04;60.53;100328.19;2083105;28;19965;-67
2021/10/10 02:26:04;;;;;;;;;;;;;;;19.04;60.48;100322.72;2085282;28;20041;-67
2021/10/10 02:27:04;;;;;;;;;;;;;;;19.04;60.52;100330.91;2082728;28;20454;-67
2021/10/10 02:28:05;;;;;;;;;;;;;;;19.05;60.43;100329.91;2083756;28;20388;-67
2021/10/10 02:29:05;;;;;;;;;;;;;;;19.04;60.53;100328.19;2076857;28;20694;-66
2021/10/10 02:30:05;;;;;;;;;;;;;;;19.04;60.63;100328.19;2079113;28;19921;-67
2021/10/10 02:31:06;;;;;;;;;;;;;;;19.03;60.48;100332.78;2075320;28;20366;-66
2021/10/10 02:32:06;;;;;;;;;;;;;;;19.03;60.57;100326.44;2074235;28;20104;-67
2021/10/10 02:33:06;;;;;;;;;;;;;;;19.03;60.43;100331.91;2074644;28;19917;-67
2021/10/10 02:34:07;;;;;;;;;;;;;;;19.03;60.44;100327.31;2084027;28;19917;-67
2021/10/10 02:35:07;;;;;;;;;;;;;;;19.03;60.42;100326.44;2083263;28;19971;-67
2021/10/10 02:36:07;;;;;;;;;;;;;;;19.03;60.48;100329.16;2085191;28;20699;-67
2021/10/10 02:37:08;;;;;;;;;;;;;;;19.03;60.47;100327.31;2083301;28;20222;-67
2021/10/10 02:38:09;;;;;;;;;;;;;;;19.03;60.48;100326.44;2084124;28;19927;-67
2021/10/10 02:39:10;;;;;;;;;;;;;;;19.04;60.53;100322.72;2083083;28;20034;-67
2021/10/10 02:40:10;;;;;;;;;;;;;;;19.03;60.53;100329.16;2082375;28;20039;-68
2021/10/10 02:41:11;;;;;;;;;;;;;;;19.02;60.54;100322.84;2078124;28;19908;-68
2021/10/10 02:42:11;;;;;;;;;;;;;;;19.03;60.52;100320.97;2082435;28;19917;-68
2021/10/10 02:43:11;;;;;;;;;;;;;;;19.02;60.48;100314.66;2081305;28;19912;-68
2021/10/10 02:44:12;;;;;;;;;;;;;;;19.02;60.54;100324.72;2081580;28;19928;-68
2021/10/10 02:45:12;;;;;;;;;;;;;;;19.03;60.51;100320.97;2079195;28;19948;-68
2021/10/10 02:46:12;;;;;;;;;;;;;;;19.03;60.54;100326.44;2084704;28;19958;-68
2021/10/10 02:47:14;;;;;;;;;;;;;;;19.03;60.54;100320.97;2079845;28;19917;-67
2021/10/10 02:48:14;;;;;;;;;;;;;;;19.03;60.55;100318.25;2082693;28;20520;-68
2021/10/10 02:49:14;;;;;;;;;;;;;;;19.03;60.53;100324.59;2082855;28;19917;-68
2021/10/10 02:50:15;;;;;;;;;;;;;;;19.02;60.56;100324.72;2085482;28;19912;-68
2021/10/10 02:51:15;;;;;;;;;;;;;;;19.03;60.56;100326.44;2079726;28;19938;-67
2021/10/10 02:52:16;;;;;;;;;;;;;;;19.02;60.54;100325.56;2076665;28;19924;-67
2021/10/10 02:53:17;;;;;;;;;;;;;;;19.03;60.53;100326.44;2079458;28;19936;-67
2021/10/10 02:54:17;;;;;;;;;;;;;;;19.02;60.62;100327.47;2080253;28;19920;-66
2021/10/10 02:55:17;;;;;;;;;;;;;;;19.01;60.56;100318.41;2081482;28;19927;-67
2021/10/10 02:56:18;;;;;;;;;;;;;;;19.01;60.63;100322.97;2075446;28;19927;-67
2021/10/10 02:57:18;;;;;;;;;;;;;;;19.01;60.61;100326.59;2073703;28;19921;-67
2021/10/10 02:58:18;;;;;;;;;;;;;;;19.03;60.62;100320.97;2079113;28;19925;-67
2021/10/10 02:59:19;;;;;;;;;;;;;;;19.02;60.57;100322.84;2078069;28;19994;-66
2021/10/10 03:00:19;;;;;;;;;;;;;;;19.02;60.61;100319.25;2073489;28;20197;-67
2021/10/10 03:01:19;;;;;;;;;;;;;;;19.01;60.58;100320.25;2085082;28;20886;-67
2021/10/10 03:02:20;;;;;;;;;;;;;;;19.03;60.60;100326.44;2082117;28;19909;-66
2021/10/10 03:03:20;;;;;;;;;;;;;;;19.02;60.59;100319.25;2087398;28;20359;-67
2021/10/10 03:04:21;;;;;;;;;;;;;;;19.02;60.58;100316.53;2084079;28;19913;-67
2021/10/10 03:05:21;;;;;;;;;;;;;;;19.03;60.56;100326.44;2083084;28;19917;-67
2021/10/10 03:06:21;;;;;;;;;;;;;;;19.01;60.55;100317.50;2080138;28;19927;-67
2021/10/10 03:07:22;;;;;;;;;;;;;;;19.02;60.48;100324.72;2085985;28;20399;-67
2021/10/10 03:08:23;;;;;;;;;;;;;;;19.02;60.64;100324.72;2084950;28;19920;-67
2021/10/10 03:09:23;;;;;;;;;;;;;;;19.02;60.63;100319.25;2082001;28;20026;-66
2021/10/10 03:10:23;;;;;;;;;;;;;;;19.02;60.59;100324.72;2081524;28;19920;-67
2021/10/10 03:11:24;;;;;;;;;;;;;;;19.02;60.66;100320.13;2081027;28;19947;-67
2021/10/10 03:12:24;;;;;;;;;;;;;;;19.01;60.57;100321.13;2081760;28;19923;-67
2021/10/10 03:13:24;;;;;;;;;;;;;;;19.01;60.61;100318.41;2083277;28;19934;-67
2021/10/10 03:14:24;;;;;;;;;;;;;;;19.01;60.47;100325.72;2082805;28;20506;-67
2021/10/10 03:15:25;;;;;;;;;;;;;;;19.02;60.59;100330.19;2081678;28;20390;-67
2021/10/10 03:16:25;;;;;;;;;;;;;;;19.02;60.47;100322.00;2084490;28;19927;-67
2021/10/10 03:17:25;;;;;;;;;;;;;;;19.02;60.56;100327.47;2083284;28;19920;-67
2021/10/10 03:18:26;;;;;;;;;;;;;;;19.02;60.59;100330.19;2082907;28;20353;-67
2021/10/10 03:19:29;;;;;;;;;;;;;;;19.02;60.68;100325.56;2083362;28;19909;-67
2021/10/10 03:20:29;;;;;;;;;;;;;;;19.02;60.54;100320.13;2082175;28;19920;-67
2021/10/10 03:21:30;;;;;;;;;;;;;;;19.01;60.57;100318.41;2076255;28;19913;-67
2021/10/10 03:22:30;;;;;;;;;;;;;;;19.02;60.59;100324.72;2074452;28;19970;-67
2021/10/10 03:23:30;;;;;;;;;;;;;;;19.01;60.66;100329.34;2083312;28;19921;-67
2021/10/10 03:24:31;;;;;;;;;;;;;;;19.02;60.71;100324.72;2086694;28;19931;-67
2021/10/10 03:25:31;;;;;;;;;;;;;;;19.02;60.52;100324.72;2082678;28;19916;-68
2021/10/10 03:26:43;;;;;;;;;;;;;;;19.03;60.61;100323.69;2084549;28;19916;-67
2021/10/10 03:27:43;;;;;;;;;;;;;;;19.01;60.71;100322.97;2085511;28;20023;-68
2021/10/10 03:28:44;;;;;;;;;;;;;;;19.01;60.77;100318.41;2083209;28;19924;-68
2021/10/10 03:29:44;;;;;;;;;;;;;;;19.02;60.66;100319.25;2089731;28;19991;-67
2021/10/10 03:30:44;;;;;;;;;;;;;;;19.01;60.66;100323.88;2078918;28;19966;-67
2021/10/10 03:31:45;;;;;;;;;;;;;;;19.00;60.67;100321.28;2083060;28;19905;-67
2021/10/10 03:32:45;;;;;;;;;;;;;;;19.01;60.82;100317.50;2079125;28;19913;-67
2021/10/10 03:33:45;;;;;;;;;;;;;;;19.01;60.77;100318.41;2080710;28;19913;-67
2021/10/10 03:34:46;;;;;;;;;;;;;;;19.02;60.69;100316.53;2080775;28;20367;-67
2021/10/10 03:35:46;;;;;;;;;;;;;;;19.00;60.71;100311.19;2080010;28;19920;-69
2021/10/10 03:36:46;;;;;;;;;;;;;;;19.01;60.66;100317.50;2085309;28;19934;-67
2021/10/10 03:37:47;;;;;;;;;;;;;;;19.01;60.58;100322.97;2083021;28;19920;-68
2021/10/10 03:38:47;;;;;;;;;;;;;;;19.01;60.61;100312.06;2084137;28;19927;-67
2021/10/10 03:39:47;;;;;;;;;;;;;;;19.01;60.63;100317.50;2083851;28;19935;-67
2021/10/10 03:40:48;;;;;;;;;;;;;;;19.01;60.67;100315.66;2084887;28;19912;-67
2021/10/10 03:41:48;;;;;;;;;;;;;;;19.01;60.65;100322.97;2082870;28;20514;-67
2021/10/10 03:42:48;;;;;;;;;;;;;;;19.00;60.64;100313.94;2085495;28;19921;-67
2021/10/10 03:43:48;;;;;;;;;;;;;;;18.99;60.68;100314.94;2083892;28;19924;-67
2021/10/10 03:44:49;;;;;;;;;;;;;;;19.02;60.66;100313.78;2084099;28;20694;-67
2021/10/10 03:45:49;;;;;;;;;;;;;;;19.00;60.71;100310.34;2084968;28;19912;-67
2021/10/10 03:46:49;;;;;;;;;;;;;;;19.01;60.67;100312.06;2084834;28;20395;-67
2021/10/10 03:47:50;;;;;;;;;;;;;;;19.00;60.75;100308.47;2082888;28;19944;-67
2021/10/10 03:48:50;;;;;;;;;;;;;;;19.01;60.66;100312.06;2077295;28;19921;-67
2021/10/10 03:49:57;;;;;;;;;;;;;;;19.01;60.75;100312.06;2081494;28;19920;-67
2021/10/10 03:50:57;;;;;;;;;;;;;;;19.00;60.79;100310.34;2085832;28;19908;-67
2021/10/10 03:51:58;;;;;;;;;;;;;;;19.01;60.90;100312.06;2070525;28;19905;-67
2021/10/10 03:52:58;;;;;;;;;;;;;;;19.00;60.75;100315.81;2069989;28;20627;-68
2021/10/10 03:56:26;;;;;;;;;;;;;;;19.00;60.74;100311.19;2081264;28;20334;-67
2021/10/10 03:57:27;;;;;;;;;;;;;;;19.00;60.75;100310.34;2083790;28;19948;-67
2021/10/10 03:58:27;;;;;;;;;;;;;;;18.99;60.74;100308.63;2079828;28;19948;-67
2021/10/10 03:59:27;;;;;;;;;;;;;;;19.00;60.80;100310.34;2080387;28;20027;-67
2021/10/10 04:00:29;;;;;;;;;;;;;;;19.00;60.67;100310.34;2082073;28;19940;-68
2021/10/10 04:01:30;;;;;;;;;;;;;;;18.99;60.77;100309.47;2082494;28;19989;-67
2021/10/10 04:02:30;;;;;;;;;;;;;;;19.00;60.79;100307.59;2083188;28;19966;-67
2021/10/10 04:03:46;;;;;;;;;;;;;;;19.01;60.74;100312.06;2082987;28;19916;-67
2021/10/10 04:04:46;;;;;;;;;;;;;;;19.00;60.72;100310.34;2073570;28;19925;-68
2021/10/10 04:05:48;;;;;;;;;;;;;;;19.00;60.74;100305.72;2081460;28;19923;-67
2021/10/10 04:06:48;;;;;;;;;;;;;;;19.01;60.82;100317.50;2080627;28;20782;-68
2021/10/10 04:07:49;;;;;;;;;;;;;;;19.00;60.85;100307.59;2080846;28;20359;-67
2021/10/10 04:08:50;;;;;;;;;;;;;;;18.99;60.76;100306.75;2082944;28;19924;-68
2021/10/10 04:09:51;;;;;;;;;;;;;;;19.00;60.79;100310.34;2082531;28;19956;-67
2021/10/10 04:10:51;;;;;;;;;;;;;;;19.00;60.90;100310.34;2084901;28;19908;-66
2021/10/10 04:11:51;;;;;;;;;;;;;;;18.99;60.76;100303.16;2083468;28;20921;-67
2021/10/10 04:12:52;;;;;;;;;;;;;;;18.99;60.77;100305.91;2085406;28;19916;-67
2021/10/10 04:13:52;;;;;;;;;;;;;;;19.00;60.79;100304.88;2082833;28;19920;-67
2021/10/10 04:14:52;;;;;;;;;;;;;;;18.99;60.74;100305.91;2081913;28;19921;-67
2021/10/10 04:15:53;;;;;;;;;;;;;;;18.99;60.75;100306.75;2085642;28;19917;-67
2021/10/10 04:16:53;;;;;;;;;;;;;;;19.00;60.75;100310.34;2083841;28;19912;-67
2021/10/10 04:17:53;;;;;;;;;;;;;;;18.99;60.76;100304.03;2081385;28;19920;-67
2021/10/10 04:18:54;;;;;;;;;;;;;;;18.99;60.92;100309.47;2083924;28;19924;-67
2021/10/10 04:19:54;;;;;;;;;;;;;;;19.00;60.84;100310.34;2084483;28;20007;-67
2021/10/10 04:20:56;;;;;;;;;;;;;;;19.00;60.80;100307.59;2082301;28;19947;-67
2021/10/10 04:21:57;;;;;;;;;;;;;;;18.99;60.81;100297.69;2082851;28;19916;-68
2021/10/10 04:22:57;;;;;;;;;;;;;;;18.99;60.80;100303.16;2080167;28;19922;-67
2021/10/10 04:23:57;;;;;;;;;;;;;;;18.98;60.94;100305.00;2084493;28;20047;-68
2021/10/10 04:24:58;;;;;;;;;;;;;;;18.99;60.86;100309.47;2075547;28;19966;-68
2021/10/10 04:25:58;;;;;;;;;;;;;;;18.98;60.90;100301.41;2071864;28;20561;-67
2021/10/10 04:27:04;;;;;;;;;;;;;;;18.99;60.81;100314.09;2077426;28;19917;-68
2021/10/10 04:28:04;;;;;;;;;;;;;;;18.99;60.81;100311.34;2080179;28;19966;-67
2021/10/10 04:29:04;;;;;;;;;;;;;;;18.99;60.84;100308.63;2076422;28;19908;-68
2021/10/10 04:30:06;;;;;;;;;;;;;;;18.99;60.83;100308.63;2079551;28;20263;-67
2021/10/10 04:31:07;;;;;;;;;;;;;;;18.99;60.82;100319.56;2078845;28;19924;-67
2021/10/10 04:32:07;;;;;;;;;;;;;;;18.98;60.88;100306.88;2083283;28;19916;-67
2021/10/10 04:33:10;;;;;;;;;;;;;;;18.99;60.88;100308.63;2081272;28;21200;-67
2021/10/10 04:34:11;;;;;;;;;;;;;;;18.99;60.81;100308.63;2076940;28;19912;-67
2021/10/10 04:35:12;;;;;;;;;;;;;;;18.99;60.82;100311.34;2081801;28;19920;-67
2021/10/10 04:36:12;;;;;;;;;;;;;;;18.99;60.85;100311.34;2078927;28;19916;-68
2021/10/10 04:37:13;;;;;;;;;;;;;;;18.99;60.84;100311.34;2086700;28;19940;-67
2021/10/10 04:38:13;;;;;;;;;;;;;;;18.99;60.82;100308.63;2082950;28;20280;-67
2021/10/10 04:39:13;;;;;;;;;;;;;;;18.99;60.82;100314.09;2079609;28;20338;-67
2021/10/10 04:40:13;;;;;;;;;;;;;;;18.98;60.70;100313.19;2081281;28;19932;-67
2021/10/10 04:41:14;;;;;;;;;;;;;;;18.98;60.78;100315.09;2084502;28;19924;-67
2021/10/10 04:42:14;;;;;;;;;;;;;;;18.99;60.80;100314.09;2082874;28;20512;-67
2021/10/10 04:43:14;;;;;;;;;;;;;;;18.99;60.86;100319.56;2084246;28;19920;-68
2021/10/10 04:44:15;;;;;;;;;;;;;;;18.98;60.84;100313.19;2085982;28;20281;-67
2021/10/10 04:45:15;;;;;;;;;;;;;;;18.98;60.94;100306.88;2081845;28;19916;-67
2021/10/10 04:46:15;;;;;;;;;;;;;;;18.98;60.76;100312.34;2083874;28;20349;-67
2021/10/10 04:47:16;;;;;;;;;;;;;;;18.99;60.85;100305.91;2079015;28;19916;-67
2021/10/10 04:48:16;;;;;;;;;;;;;;;18.98;60.91;100312.34;2079306;28;20023;-68
2021/10/10 04:49:16;;;;;;;;;;;;;;;18.98;60.90;100306.88;2079194;28;19939;-67
2021/10/10 04:50:17;;;;;;;;;;;;;;;18.97;60.93;100314.22;2083131;28;19962;-68
2021/10/10 04:51:17;;;;;;;;;;;;;;;18.98;60.95;100309.63;2083822;28;20022;-67
2021/10/10 04:52:17;;;;;;;;;;;;;;;18.98;60.91;100313.19;2083031;28;20379;-67
2021/10/10 04:53:18;;;;;;;;;;;;;;;18.98;60.95;100317.81;2082386;28;19991;-67
2021/10/10 04:54:18;;;;;;;;;;;;;;;18.98;60.96;100315.09;2083826;28;19920;-68
2021/10/10 04:55:18;;;;;;;;;;;;;;;18.98;60.85;100317.81;2084637;28;19948;-67
2021/10/10 04:56:19;;;;;;;;;;;;;;;18.99;60.86;100322.28;2079456;28;20320;-67
2021/10/10 04:57:20;;;;;;;;;;;;;;;18.98;60.99;100318.66;2085052;28;19916;-67
2021/10/10 04:58:20;;;;;;;;;;;;;;;18.98;60.91;100315.09;2082014;28;20367;-67
2021/10/10 04:59:20;;;;;;;;;;;;;;;18.98;60.91;100317.81;2080048;28;19925;-67
2021/10/10 05:00:21;;;;;;;;;;;;;;;18.98;60.94;100323.28;2080407;28;20399;-68
2021/10/10 05:01:21;;;;;;;;;;;;;;;18.98;60.99;100317.81;2081545;28;19951;-67
2021/10/10 05:02:22;;;;;;;;;;;;;;;18.98;60.94;100318.66;2078636;28;19927;-67
2021/10/10 05:03:22;;;;;;;;;;;;;;;18.98;60.93;100320.53;2081040;28;19965;-67
2021/10/10 05:04:22;;;;;;;;;;;;;;;18.97;60.92;100321.56;2083767;28;20376;-67
2021/10/10 05:05:23;;;;;;;;;;;;;;;18.98;61.00;100323.28;2083801;28;20338;-67
2021/10/10 05:06:23;;;;;;;;;;;;;;;18.98;60.95;100317.81;2080670;28;19928;-67
2021/10/10 05:07:24;;;;;;;;;;;;;;;18.97;60.95;100316.97;2082259;28;19908;-67
2021/10/10 05:08:24;;;;;;;;;;;;;;;18.97;60.86;100321.56;2082057;28;19917;-67
2021/10/10 05:09:24;;;;;;;;;;;;;;;18.97;60.87;100324.28;2079990;28;19924;-66
2021/10/10 05:10:25;;;;;;;;;;;;;;;18.98;60.84;100317.81;2081417;28;19917;-67
2021/10/10 05:11:25;;;;;;;;;;;;;;;18.98;60.83;100315.09;2078592;28;19924;-66
2021/10/10 05:12:25;;;;;;;;;;;;;;;18.97;60.86;100313.38;2082653;28;19970;-67
2021/10/10 05:13:25;;;;;;;;;;;;;;;18.96;60.91;100315.25;2084242;28;20299;-66